Time;durP1;ratioP1;P1;durP2;ratioP2;P2;SDS_P1;SDS_P2;PMS_P1;PMS_P2;Temp;Humidity;BMP_temperature;BMP_pressure;BME280_temperature;BME280_humidity;BME280_pressure;Samples;Min_cycle;Max_cycle;Signal;HPM_P1;HPM_P2
2023/03/20 00:00:36;;;;;;;8.45;4.82;;;7.20;99.90;;;;;;5031989;28;20041;-61
2023/03/20 00:03:02;;;;;;;9.07;4.28;;;7.20;99.90;;;;;;5014913;28;20038;-61
2023/03/20 00:05:30;;;;;;;10.20;4.93;;;7.20;99.90;;;;;;4999000;28;20561;-61
2023/03/20 00:07:56;;;;;;;8.82;4.28;;;7.20;99.90;;;;;;5014867;28;20073;-62
2023/03/20 00:10:30;;;;;;;10.75;5.00;;;7.20;99.90;;;;;;5014805;28;20041;-61
2023/03/20 00:12:56;;;;;;;8.93;3.78;;;7.10;99.90;;;;;;5032959;28;20053;-61
2023/03/20 00:15:25;;;;;;;9.93;5.07;;;7.20;99.90;;;;;;5014033;28;20033;-61
2023/03/20 00:17:52;;;;;;;9.60;4.53;;;7.10;99.90;;;;;;5032744;28;20124;-61
2023/03/20 00:20:18;;;;;;;8.88;4.13;;;7.20;99.90;;;;;;5014948;28;20567;-61
2023/03/20 00:22:44;;;;;;;9.35;4.72;;;7.20;99.90;;;;;;5032064;28;20042;-61
2023/03/20 00:25:15;;;;;;;10.68;4.35;;;7.10;99.90;;;;;;5014401;28;20060;-61
2023/03/20 00:27:42;;;;;;;8.73;3.95;;;7.20;99.90;;;;;;5014860;28;20030;-61
2023/03/20 00:30:21;;;;;;;9.77;4.05;;;7.10;99.90;;;;;;5014300;28;20067;-61
2023/03/20 00:32:47;;;;;;;10.43;4.60;;;7.10;99.90;;;;;;5032692;28;20397;-61
2023/03/20 00:35:21;;;;;;;10.40;4.05;;;7.10;99.90;;;;;;5012793;28;20095;-62
2023/03/20 00:37:47;;;;;;;12.80;4.40;;;7.10;99.90;;;;;;5032383;28;20052;-61
2023/03/20 00:40:13;;;;;;;8.55;3.75;;;7.10;99.90;;;;;;5045394;28;20049;-62
2023/03/20 00:42:40;;;;;;;8.07;3.88;;;7.10;99.90;;;;;;5034337;28;20040;-61
2023/03/20 00:45:12;;;;;;;9.75;4.10;;;7.10;99.90;;;;;;5033663;28;20485;-61
2023/03/20 00:47:40;;;;;;;9.05;4.38;;;7.10;99.90;;;;;;5034455;28;20383;-61
2023/03/20 00:50:23;;;;;;;9.05;4.78;;;7.10;99.90;;;;;;5032950;28;20052;-61
2023/03/20 00:52:52;;;;;;;10.88;4.20;;;7.10;99.90;;;;;;5017767;28;20094;-61
2023/03/20 00:55:20;;;;;;;11.50;4.97;;;7.10;99.90;;;;;;5034048;28;20056;-61
2023/03/20 00:57:56;;;;;;;11.68;5.22;;;7.10;99.90;;;;;;5033603;28;20048;-61
2023/03/20 01:00:23;;;;;;;8.13;4.50;;;7.10;99.90;;;;;;5033803;28;20033;-61
2023/03/20 01:02:52;;;;;;;11.30;4.80;;;7.10;99.90;;;;;;5033484;28;20033;-61
2023/03/20 01:05:18;;;;;;;11.18;4.60;;;7.00;99.90;;;;;;5033637;28;20472;-61
2023/03/20 01:07:45;;;;;;;12.23;5.47;;;7.10;99.90;;;;;;5034298;28;20119;-61
2023/03/20 01:10:12;;;;;;;13.82;5.75;;;7.10;99.90;;;;;;5051096;28;20119;-61
2023/03/20 01:12:39;;;;;;;13.55;6.07;;;7.10;99.90;;;;;;5033771;28;20052;-61
2023/03/20 01:15:22;;;;;;;10.50;5.03;;;7.10;99.90;;;;;;5017389;28;20044;-61
2023/03/20 01:17:49;;;;;;;13.88;5.72;;;7.10;99.90;;;;;;5051710;28;20116;-61
2023/03/20 01:20:19;;;;;;;18.27;6.43;;;7.10;99.90;;;;;;5033213;28;20045;-61
2023/03/20 01:22:45;;;;;;;12.38;5.35;;;7.10;99.90;;;;;;5034206;28;20045;-61
2023/03/20 01:25:11;;;;;;;14.65;5.80;;;7.10;99.90;;;;;;5032739;28;20048;-61
2023/03/20 01:27:37;;;;;;;12.15;5.88;;;7.20;99.90;;;;;;5033847;28;20515;-61
2023/03/20 01:30:14;;;;;;;11.40;5.60;;;7.20;99.90;;;;;;5051903;28;20048;-61
2023/03/20 01:32:42;;;;;;;18.35;5.85;;;7.20;99.90;;;;;;5033382;28;20553;-61
2023/03/20 01:35:12;;;;;;;15.55;6.35;;;7.20;99.90;;;;;;5033000;28;20056;-61
2023/03/20 01:37:37;;;;;;;14.30;6.68;;;7.20;99.90;;;;;;5051857;28;20037;-61
2023/03/20 01:40:08;;;;;;;13.15;5.47;;;7.20;99.90;;;;;;5032919;28;20070;-61
2023/03/20 01:42:34;;;;;;;14.20;5.22;;;7.20;99.90;;;;;;5051645;28;20489;-61
2023/03/20 01:44:59;;;;;;;12.73;5.70;;;7.30;99.90;;;;;;5017331;28;20048;-61
2023/03/20 01:47:26;;;;;;;15.25;6.13;;;7.30;99.90;;;;;;5035985;28;20565;-61
2023/03/20 01:50:17;;;;;;;12.57;5.53;;;7.30;99.90;;;;;;5021092;28;20474;-61
2023/03/20 01:52:42;;;;;;;18.08;5.88;;;7.30;99.90;;;;;;5020615;28;20040;-61
2023/03/20 01:55:08;;;;;;;12.85;5.95;;;7.30;99.90;;;;;;5036884;28;20047;-61
2023/03/20 01:57:36;;;;;;;13.10;5.82;;;7.30;99.90;;;;;;5055734;28;20049;-61
2023/03/20 02:00:09;;;;;;;17.08;6.43;;;7.30;99.90;;;;;;5036570;28;20429;-61
2023/03/20 02:02:36;;;;;;;13.45;6.32;;;7.30;99.90;;;;;;5037264;28;20055;-61
2023/03/20 02:05:08;;;;;;;11.93;5.88;;;7.30;99.90;;;;;;5037161;28;20055;-61
2023/03/20 02:07:35;;;;;;;16.13;6.60;;;7.40;99.90;;;;;;5037171;28;20398;-61
2023/03/20 02:10:04;;;;;;;13.57;6.05;;;7.30;99.90;;;;;;5036989;28;20040;-61
2023/03/20 02:12:30;;;;;;;12.00;5.18;;;7.40;99.90;;;;;;5036864;28;20132;-61
2023/03/20 02:14:57;;;;;;;14.07;6.00;;;7.40;99.90;;;;;;5052785;28;20106;-61
2023/03/20 02:17:23;;;;;;;12.00;6.50;;;7.40;99.90;;;;;;5036448;28;20037;-61
2023/03/20 02:20:04;;;;;;;16.60;6.53;;;7.40;99.90;;;;;;5055093;28;20037;-61
2023/03/20 02:22:48;;;;;;;14.35;7.85;;;7.40;99.90;;;;;;5054568;28;20051;-61
2023/03/20 02:25:29;;;;;;;11.20;5.90;;;7.40;99.90;;;;;;5054555;28;20045;-61
2023/03/20 02:28:19;;;;;;;10.95;5.00;;;7.40;99.90;;;;;;5054415;28;20120;-61
2023/03/20 02:31:24;;;;;;;13.23;6.43;;;7.40;99.90;;;;;;5037140;28;20037;-61
2023/03/20 02:34:16;;;;;;;15.63;6.68;;;7.40;99.90;;;;;;5019767;28;20566;-61
2023/03/20 02:36:56;;;;;;;17.98;6.90;;;7.40;99.90;;;;;;5019881;28;20045;-61
2023/03/20 02:39:48;;;;;;;14.35;6.82;;;7.40;99.90;;;;;;5019538;28;20056;-61
2023/03/20 02:42:19;;;;;;;15.90;6.75;;;7.50;99.90;;;;;;5042218;28;20124;-61
2023/03/20 02:44:49;;;;;;;17.98;6.85;;;7.40;99.90;;;;;;5020072;28;20037;-61
2023/03/20 02:47:36;;;;;;;12.95;6.40;;;7.50;99.90;;;;;;5035885;28;20048;-61
2023/03/20 02:50:15;;;;;;;11.73;5.93;;;7.50;99.90;;;;;;5019469;28;20041;-61
2023/03/20 02:53:05;;;;;;;15.23;7.15;;;7.50;99.90;;;;;;5033882;28;20510;-61
2023/03/20 02:55:38;;;;;;;14.45;6.30;;;7.50;99.90;;;;;;5016616;28;20593;-61
2023/03/20 02:58:45;;;;;;;14.27;7.05;;;7.50;99.90;;;;;;5015206;28;20045;-61
2023/03/20 03:01:19;;;;;;;18.55;7.65;;;7.50;99.90;;;;;;5016296;28;20053;-61
2023/03/20 03:03:51;;;;;;;14.55;6.13;;;7.50;99.90;;;;;;5033990;28;20053;-61
2023/03/20 03:06:31;;;;;;;13.10;7.32;;;7.50;99.90;;;;;;5016086;28;20041;-61
2023/03/20 03:09:05;;;;;;;13.63;6.80;;;7.50;99.90;;;;;;5016845;28;20033;-61
2023/03/20 03:11:41;;;;;;;19.30;7.55;;;7.50;99.90;;;;;;5015694;28;20441;-61
2023/03/20 03:14:13;;;;;;;15.82;7.72;;;7.50;99.90;;;;;;5015825;28;20052;-61
2023/03/20 03:16:40;;;;;;;17.80;7.07;;;7.60;99.90;;;;;;5015857;28;20101;-61
2023/03/20 03:19:08;;;;;;;22.20;7.97;;;7.50;99.90;;;;;;5015490;28;20082;-61
2023/03/20 03:21:37;;;;;;;14.93;7.00;;;7.50;99.90;;;;;;5016262;28;20124;-61
2023/03/20 03:24:03;;;;;;;16.92;7.13;;;7.50;99.90;;;;;;5016805;28;20075;-61
2023/03/20 03:26:33;;;;;;;15.63;7.00;;;7.60;99.90;;;;;;5035312;28;20383;-61
2023/03/20 03:29:12;;;;;;;16.05;7.55;;;7.60;99.90;;;;;;5036235;28;20073;-61
2023/03/20 03:31:38;;;;;;;11.70;6.50;;;7.60;99.90;;;;;;5053454;28;20076;-61
2023/03/20 03:34:04;;;;;;;15.15;7.00;;;7.60;99.90;;;;;;5035196;28;20484;-61
2023/03/20 03:36:51;;;;;;;11.90;6.70;;;7.60;99.90;;;;;;5035582;28;20087;-61
2023/03/20 03:39:29;;;;;;;13.45;6.93;;;7.60;99.90;;;;;;5034522;28;20092;-61
2023/03/20 03:42:02;;;;;;;14.93;6.90;;;7.60;99.90;;;;;;5053635;28;20124;-61
2023/03/20 03:44:35;;;;;;;17.35;7.50;;;7.60;99.90;;;;;;5034874;28;20044;-61
2023/03/20 03:47:10;;;;;;;9.30;6.07;;;7.60;99.90;;;;;;5035431;28;20041;-61
2023/03/20 03:49:42;;;;;;;12.50;5.90;;;7.60;99.90;;;;;;5035259;28;20037;-61
2023/03/20 03:52:12;;;;;;;11.30;6.68;;;7.70;99.90;;;;;;5034616;28;20090;-61
2023/03/20 03:54:47;;;;;;;13.65;6.50;;;7.60;99.90;;;;;;5035550;28;20048;-61
2023/03/20 03:57:19;;;;;;;11.52;5.93;;;7.70;99.90;;;;;;5018008;28;20095;-61
2023/03/20 03:59:49;;;;;;;10.77;6.18;;;7.70;99.90;;;;;;5018544;28;20049;-61
2023/03/20 04:02:18;;;;;;;11.98;5.82;;;7.60;99.90;;;;;;5034414;28;20049;-61
2023/03/20 04:04:47;;;;;;;10.65;5.38;;;7.60;99.90;;;;;;5019164;28;20094;-61
2023/03/20 04:07:14;;;;;;;13.30;6.43;;;7.60;99.90;;;;;;5017311;28;20041;-61
2023/03/20 04:09:40;;;;;;;10.50;6.03;;;7.60;99.90;;;;;;5052571;28;20044;-61
2023/03/20 04:12:17;;;;;;;12.07;6.25;;;7.60;99.90;;;;;;5034449;28;20494;-61
2023/03/20 04:14:43;;;;;;;10.77;6.28;;;7.60;99.90;;;;;;5034375;28;20045;-61
2023/03/20 04:17:08;;;;;;;12.02;7.63;;;7.60;99.90;;;;;;5034525;28;20049;-61
2023/03/20 04:19:34;;;;;;;13.00;7.57;;;7.60;99.90;;;;;;5034858;28;20072;-61
2023/03/20 04:22:00;;;;;;;14.80;7.47;;;7.70;99.90;;;;;;5052233;28;20044;-61
2023/03/20 04:24:25;;;;;;;14.20;6.57;;;7.70;99.90;;;;;;5052506;28;20045;-61
2023/03/20 04:26:51;;;;;;;18.42;8.43;;;7.70;99.90;;;;;;5017880;28;20040;-61
2023/03/20 04:29:17;;;;;;;15.60;8.85;;;7.60;99.90;;;;;;5017841;28;20083;-61
2023/03/20 04:31:42;;;;;;;13.65;8.50;;;7.60;99.90;;;;;;5052859;28;20039;-61
2023/03/20 04:34:08;;;;;;;14.70;8.10;;;7.60;99.90;;;;;;5033606;28;20048;-61
2023/03/20 04:36:34;;;;;;;18.90;9.48;;;7.60;99.90;;;;;;5051963;28;20370;-61
2023/03/20 04:38:59;;;;;;;14.50;8.57;;;7.60;99.90;;;;;;5052449;28;20091;-61
2023/03/20 04:41:25;;;;;;;17.00;8.93;;;7.60;99.90;;;;;;5033332;28;20063;-61
2023/03/20 04:43:51;;;;;;;20.05;9.15;;;7.60;99.90;;;;;;5017936;28;20037;-61
2023/03/20 04:46:16;;;;;;;18.05;9.85;;;7.60;99.90;;;;;;5051674;28;20501;-60
2023/03/20 04:48:42;;;;;;;18.05;10.43;;;7.60;99.90;;;;;;5034148;28;20033;-60
2023/03/20 04:51:07;;;;;;;20.15;10.70;;;7.60;99.90;;;;;;5051614;28;20039;-60
2023/03/20 04:53:33;;;;;;;22.35;10.80;;;7.60;99.90;;;;;;5052247;28;20171;-60
2023/03/20 04:55:59;;;;;;;21.23;10.88;;;7.50;99.90;;;;;;5051439;28;20067;-60
2023/03/20 04:58:24;;;;;;;16.08;9.60;;;7.60;99.90;;;;;;5033684;28;20049;-60
2023/03/20 05:00:50;;;;;;;20.33;9.30;;;7.60;99.90;;;;;;5034356;28;20040;-60
2023/03/20 05:03:16;;;;;;;19.13;9.85;;;7.60;99.90;;;;;;5032567;28;20397;-60
2023/03/20 05:05:42;;;;;;;17.45;9.05;;;7.60;99.90;;;;;;5034474;28;20036;-60
2023/03/20 05:08:08;;;;;;;15.82;8.77;;;7.60;99.90;;;;;;5033762;28;20052;-60
2023/03/20 05:10:33;;;;;;;20.45;11.30;;;7.60;99.90;;;;;;5051252;28;20394;-60
2023/03/20 05:12:59;;;;;;;16.77;9.77;;;7.50;99.90;;;;;;5034193;28;20124;-60
2023/03/20 05:15:25;;;;;;;18.67;10.00;;;7.60;99.90;;;;;;5020459;28;20146;-60
2023/03/20 05:17:51;;;;;;;20.63;11.23;;;7.60;99.90;;;;;;4997344;28;20129;-60
2023/03/20 05:20:17;;;;;;;21.48;10.45;;;7.60;99.90;;;;;;5013999;28;20081;-60
2023/03/20 05:22:43;;;;;;;18.95;10.88;;;7.50;99.90;;;;;;5000966;28;20533;-60
2023/03/20 05:25:08;;;;;;;20.15;11.13;;;7.60;99.90;;;;;;5000495;28;20045;-60
2023/03/20 05:27:34;;;;;;;23.58;11.10;;;7.60;99.90;;;;;;5018670;28;20118;-60
2023/03/20 05:30:00;;;;;;;21.02;11.45;;;7.50;99.90;;;;;;5017854;28;20505;-60
2023/03/20 05:32:25;;;;;;;20.30;12.40;;;7.50;99.90;;;;;;5019322;28;20041;-60
2023/03/20 05:34:51;;;;;;;19.10;11.88;;;7.50;99.90;;;;;;5037742;28;20462;-60
2023/03/20 05:37:17;;;;;;;25.50;12.30;;;7.50;99.90;;;;;;5020388;28;20044;-60
2023/03/20 05:39:43;;;;;;;22.10;12.43;;;7.50;99.90;;;;;;5037349;28;20048;-60
2023/03/20 05:42:09;;;;;;;21.38;12.18;;;7.50;99.90;;;;;;5055324;28;20056;-60
2023/03/20 05:44:35;;;;;;;24.00;12.38;;;7.50;99.90;;;;;;5037432;28;20116;-60
2023/03/20 05:47:00;;;;;;;23.65;12.73;;;7.50;99.90;;;;;;5055372;28;20453;-60
2023/03/20 05:49:26;;;;;;;24.50;12.82;;;7.50;99.90;;;;;;5054949;28;20072;-60
2023/03/20 05:51:52;;;;;;;25.52;12.70;;;7.50;99.90;;;;;;5055165;28;20072;-60
2023/03/20 05:54:17;;;;;;;23.88;13.27;;;7.50;99.90;;;;;;5020225;28;20049;-60
2023/03/20 05:56:43;;;;;;;23.77;13.30;;;7.50;99.90;;;;;;5038108;28;20052;-60
2023/03/20 05:59:10;;;;;;;21.88;13.50;;;7.50;99.90;;;;;;5054490;28;20533;-60
2023/03/20 06:01:35;;;;;;;23.63;13.15;;;7.50;99.90;;;;;;5009061;28;20487;-60
2023/03/20 06:04:01;;;;;;;27.48;13.13;;;7.50;99.90;;;;;;5017482;28;20044;-60
2023/03/20 06:06:27;;;;;;;27.33;13.63;;;7.50;99.90;;;;;;5000764;28;20065;-60
2023/03/20 06:08:53;;;;;;;24.40;12.70;;;7.50;99.90;;;;;;5017630;28;20560;-60
2023/03/20 06:11:18;;;;;;;23.73;14.30;;;7.50;99.90;;;;;;5034738;28;20164;-60
2023/03/20 06:13:44;;;;;;;21.88;12.32;;;7.50;99.90;;;;;;5034809;28;20139;-60
2023/03/20 06:16:10;;;;;;;23.75;12.70;;;7.50;99.90;;;;;;5016992;28;20048;-60
2023/03/20 06:18:37;;;;;;;18.73;11.18;;;7.50;99.90;;;;;;5017675;28;20084;-60
2023/03/20 06:21:04;;;;;;;20.05;11.48;;;7.50;99.90;;;;;;5034101;28;20060;-60
2023/03/20 06:23:30;;;;;;;22.17;12.82;;;7.60;99.90;;;;;;5000838;28;20128;-60
2023/03/20 06:25:56;;;;;;;24.58;12.05;;;7.50;99.90;;;;;;5017758;28;20592;-60
2023/03/20 06:28:21;;;;;;;25.13;12.07;;;7.60;99.90;;;;;;5015876;28;20461;-60
2023/03/20 06:30:52;;;;;;;21.77;12.68;;;7.60;99.90;;;;;;5017500;28;20043;-60
2023/03/20 06:33:17;;;;;;;21.27;11.85;;;7.60;99.90;;;;;;5016125;28;20057;-60
2023/03/20 06:35:45;;;;;;;23.88;11.77;;;7.60;99.90;;;;;;5016923;28;20052;-60
2023/03/20 06:38:10;;;;;;;25.92;12.07;;;7.60;99.90;;;;;;5016449;28;20042;-60
2023/03/20 06:40:36;;;;;;;24.48;12.48;;;7.60;99.90;;;;;;5016479;28;20068;-60
2023/03/20 06:43:02;;;;;;;29.70;14.27;;;7.60;99.90;;;;;;5016878;28;20041;-60
2023/03/20 06:45:27;;;;;;;20.38;12.90;;;7.60;99.90;;;;;;5000673;28;20128;-60
2023/03/20 06:47:53;;;;;;;28.40;14.30;;;7.60;99.90;;;;;;5000359;28;20049;-60
2023/03/20 06:50:19;;;;;;;20.98;13.20;;;7.70;99.90;;;;;;4999858;28;20064;-60
2023/03/20 06:52:45;;;;;;;22.58;14.00;;;7.70;99.90;;;;;;5034477;28;20112;-60
2023/03/20 06:55:11;;;;;;;24.92;13.43;;;7.70;99.90;;;;;;5033406;28;20471;-60
2023/03/20 06:57:37;;;;;;;23.95;13.05;;;7.70;99.90;;;;;;5016398;28;20052;-60
2023/03/20 07:00:05;;;;;;;26.80;13.30;;;7.80;99.90;;;;;;4999915;28;20037;-60
2023/03/20 07:02:31;;;;;;;22.83;13.32;;;7.80;99.90;;;;;;5033565;28;20041;-60
2023/03/20 07:04:56;;;;;;;20.52;13.15;;;7.80;99.90;;;;;;5034411;28;20461;-60
2023/03/20 07:07:22;;;;;;;20.17;13.00;;;7.90;99.90;;;;;;5033533;28;20041;-60
2023/03/20 07:09:48;;;;;;;21.30;12.75;;;7.90;99.90;;;;;;5039418;28;20732;-60
2023/03/20 07:12:15;;;;;;;21.27;12.65;;;7.90;99.90;;;;;;5030344;28;20489;-60
2023/03/20 07:14:44;;;;;;;20.45;11.98;;;7.90;99.90;;;;;;5020154;28;20130;-60
2023/03/20 07:17:12;;;;;;;24.25;12.93;;;8.00;99.90;;;;;;5052704;28;20041;-60
2023/03/20 07:19:37;;;;;;;26.00;12.02;;;8.00;99.90;;;;;;5053908;28;20397;-60
2023/03/20 07:22:06;;;;;;;22.88;13.10;;;8.00;99.90;;;;;;5035805;28;20048;-60
2023/03/20 07:24:33;;;;;;;25.98;13.23;;;8.10;99.90;;;;;;5033049;28;20041;-60
2023/03/20 07:26:58;;;;;;;21.63;13.18;;;8.10;99.90;;;;;;5024274;28;20045;-60
2023/03/20 07:29:24;;;;;;;24.35;14.75;;;8.10;99.90;;;;;;5031117;28;20041;-60
2023/03/20 07:31:50;;;;;;;23.48;13.23;;;8.10;99.90;;;;;;5033927;28;20444;-60
2023/03/20 07:34:17;;;;;;;21.88;14.48;;;8.10;99.90;;;;;;5021311;28;20107;-60
2023/03/20 07:36:43;;;;;;;27.95;13.77;;;8.10;99.90;;;;;;5012940;28;20104;-61
2023/03/20 07:39:11;;;;;;;19.48;13.32;;;8.10;99.90;;;;;;5030194;28;20145;-60
2023/03/20 07:41:37;;;;;;;25.00;13.85;;;8.10;99.90;;;;;;4997020;28;20052;-61
2023/03/20 07:44:03;;;;;;;21.75;14.60;;;8.10;99.90;;;;;;5028437;28;20037;-61
2023/03/20 07:46:28;;;;;;;21.42;13.48;;;8.10;99.90;;;;;;4997040;28;20080;-61
2023/03/20 07:48:56;;;;;;;22.33;13.15;;;8.10;99.90;;;;;;5013613;28;20493;-62
2023/03/20 07:51:23;;;;;;;24.17;13.93;;;8.10;99.90;;;;;;5031316;28;20429;-61
2023/03/20 07:53:48;;;;;;;23.08;12.82;;;8.20;99.90;;;;;;5032050;28;20136;-62
2023/03/20 07:56:14;;;;;;;20.88;13.15;;;8.20;99.90;;;;;;5050601;28;20124;-61
2023/03/20 07:58:39;;;;;;;24.10;12.75;;;8.20;99.90;;;;;;5032051;28;20500;-61
2023/03/20 08:01:05;;;;;;;22.27;13.38;;;8.20;99.90;;;;;;5032633;28;20444;-61
2023/03/20 08:03:31;;;;;;;22.15;13.85;;;8.30;99.90;;;;;;5015221;28;20500;-61
2023/03/20 08:05:57;;;;;;;25.92;13.25;;;8.30;99.90;;;;;;5031212;28;20079;-61
2023/03/20 08:08:22;;;;;;;21.02;13.95;;;8.40;99.90;;;;;;5016537;28;20044;-61
2023/03/20 08:10:48;;;;;;;28.33;14.60;;;8.40;99.90;;;;;;5018129;28;20504;-61
2023/03/20 08:13:14;;;;;;;21.58;14.45;;;8.40;99.90;;;;;;5011556;28;20048;-61
2023/03/20 08:15:40;;;;;;;27.02;12.63;;;8.40;99.90;;;;;;5012868;28;20053;-61
2023/03/20 08:18:05;;;;;;;20.33;12.82;;;8.40;99.90;;;;;;5012483;28;20048;-61
2023/03/20 08:20:31;;;;;;;21.77;14.27;;;8.40;99.90;;;;;;5012222;28;20068;-61
2023/03/20 08:22:57;;;;;;;22.60;13.82;;;8.40;99.90;;;;;;5006578;28;20050;-61
2023/03/20 08:25:22;;;;;;;21.23;12.77;;;8.50;99.90;;;;;;5043876;28;20047;-61
2023/03/20 08:27:48;;;;;;;19.35;11.48;;;8.50;99.90;;;;;;5046039;28;20818;-61
2023/03/20 08:30:14;;;;;;;23.75;13.57;;;8.50;99.90;;;;;;5000230;28;20076;-61
2023/03/20 08:32:40;;;;;;;18.85;11.70;;;8.50;99.90;;;;;;5038888;28;20073;-61
2023/03/20 08:35:07;;;;;;;21.80;12.38;;;8.60;99.90;;;;;;5036350;28;20439;-61
2023/03/20 08:37:34;;;;;;;26.38;13.50;;;8.60;99.90;;;;;;5009030;28;20143;-61
2023/03/20 08:40:00;;;;;;;25.25;12.80;;;8.70;99.90;;;;;;5014862;28;20068;-61
2023/03/20 08:42:26;;;;;;;19.92;11.18;;;8.70;99.90;;;;;;5040968;28;20050;-61
2023/03/20 08:44:51;;;;;;;21.85;11.85;;;8.70;99.90;;;;;;5023825;28;20044;-61
2023/03/20 08:47:18;;;;;;;20.98;11.60;;;8.80;99.90;;;;;;5030041;28;20143;-61
2023/03/20 08:49:44;;;;;;;19.00;10.77;;;8.80;99.90;;;;;;5031267;28;20044;-61
2023/03/20 08:52:10;;;;;;;18.23;11.10;;;8.80;99.90;;;;;;5031545;28;20076;-61
2023/03/20 08:54:36;;;;;;;22.05;12.43;;;8.90;99.90;;;;;;5027093;28;20029;-61
2023/03/20 08:57:01;;;;;;;19.75;10.63;;;8.90;99.90;;;;;;5044278;28;20474;-61
2023/03/20 08:59:27;;;;;;;16.77;9.85;;;8.90;99.90;;;;;;5015371;28;20402;-62
2023/03/20 09:01:53;;;;;;;19.85;9.95;;;9.00;99.90;;;;;;5020326;28;20472;-61
2023/03/20 09:04:19;;;;;;;22.88;11.02;;;9.10;99.90;;;;;;5020974;28;20152;-61
2023/03/20 09:06:44;;;;;;;14.73;8.82;;;9.20;99.90;;;;;;5015426;28;20513;-61
2023/03/20 09:09:14;;;;;;;22.38;10.45;;;9.20;99.90;;;;;;5021115;28;20535;-61
2023/03/20 09:11:40;;;;;;;18.85;9.15;;;9.30;99.90;;;;;;5031896;28;20123;-61
2023/03/20 09:14:06;;;;;;;18.05;9.30;;;9.40;99.90;;;;;;5047498;28;20100;-61
2023/03/20 09:16:32;;;;;;;18.27;9.65;;;9.40;99.90;;;;;;5031190;28;20501;-61
2023/03/20 09:18:57;;;;;;;14.85;8.57;;;9.50;99.90;;;;;;5049639;28;20033;-61
2023/03/20 09:21:23;;;;;;;14.85;9.27;;;9.50;99.90;;;;;;5021462;28;20490;-61
2023/03/20 09:23:49;;;;;;;19.05;9.77;;;9.40;99.90;;;;;;5014620;28;20079;-61
2023/03/20 09:26:15;;;;;;;17.25;8.55;;;9.40;99.90;;;;;;5048944;28;20048;-61
2023/03/20 09:28:41;;;;;;;17.08;9.43;;;9.50;99.90;;;;;;5048910;28;20040;-61
2023/03/20 09:31:07;;;;;;;17.27;9.60;;;9.60;99.90;;;;;;5010755;28;20477;-61
2023/03/20 09:33:32;;;;;;;16.23;9.73;;;9.60;99.90;;;;;;5012099;28;20502;-61
2023/03/20 09:35:58;;;;;;;16.95;9.57;;;9.60;99.90;;;;;;5031546;28;20802;-61
2023/03/20 09:38:24;;;;;;;20.98;10.15;;;9.60;99.90;;;;;;5042872;28;20156;-61
2023/03/20 09:40:55;;;;;;;26.52;11.50;;;9.60;99.90;;;;;;5030044;28;20099;-61
2023/03/20 09:43:49;;;;;;;16.25;10.00;;;9.70;99.90;;;;;;5022134;28;20053;-61
2023/03/20 09:46:36;;;;;;;17.65;10.60;;;9.70;99.90;;;;;;5021395;28;20094;-61
2023/03/20 09:49:24;;;;;;;16.92;9.48;;;9.80;99.90;;;;;;5051248;28;20041;-61
2023/03/20 09:51:57;;;;;;;16.13;9.35;;;9.80;99.90;;;;;;5023827;28;20115;-60
2023/03/20 09:54:30;;;;;;;17.23;10.05;;;9.90;99.90;;;;;;5015014;28;20041;-61
2023/03/20 09:56:56;;;;;;;17.90;9.50;;;9.90;99.90;;;;;;5047074;28;20041;-60
2023/03/20 09:59:25;;;;;;;19.92;9.68;;;9.90;99.90;;;;;;5012781;28;20041;-60
2023/03/20 10:01:53;;;;;;;20.30;11.60;;;9.90;99.90;;;;;;5022164;28;20052;-60
2023/03/20 10:04:19;;;;;;;17.27;9.88;;;10.00;99.90;;;;;;5025485;28;20049;-61
2023/03/20 10:06:45;;;;;;;18.27;10.85;;;10.00;99.90;;;;;;5014261;28;20033;-61
2023/03/20 10:09:21;;;;;;;16.02;9.50;;;9.90;99.90;;;;;;5020225;28;20045;-61
2023/03/20 10:12:17;;;;;;;19.50;10.32;;;10.00;99.90;;;;;;5033811;28;20038;-61
2023/03/20 10:14:56;;;;;;;;;;;10.00;99.90;;;;;;5034324;28;20073;-61
2023/03/20 10:17:44;;;;;;;18.33;9.43;;;10.00;99.90;;;;;;5034943;28;19917;-61
2023/03/20 10:20:32;;;;;;;19.15;10.65;;;10.00;99.90;;;;;;5032100;28;20055;-61
2023/03/20 10:23:11;;;;;;;18.27;10.77;;;10.00;99.90;;;;;;5033709;28;20098;-61
2023/03/20 10:25:45;;;;;;;18.25;9.55;;;10.00;99.90;;;;;;5017450;28;20049;-61
2023/03/20 10:28:12;;;;;;;22.00;11.38;;;10.00;99.90;;;;;;5016660;28;20046;-61
2023/03/20 10:31:16;;;;;;;19.05;9.38;;;9.90;99.90;;;;;;5017300;28;20037;-61
2023/03/20 10:34:09;;;;;;;16.27;9.85;;;9.80;99.90;;;;;;5034221;28;20045;-61
2023/03/20 10:36:55;;;;;;;15.40;8.95;;;9.70;99.90;;;;;;5017250;28;20048;-61
2023/03/20 10:39:49;;;;;;;20.40;9.05;;;9.70;99.90;;;;;;5034153;28;20144;-61
2023/03/20 10:42:23;;;;;;;17.02;8.82;;;9.70;99.90;;;;;;5049458;28;20121;-61
2023/03/20 10:45:06;;;;;;;19.15;8.85;;;9.70;99.90;;;;;;5033542;28;20126;-61
2023/03/20 10:47:37;;;;;;;21.33;10.10;;;9.80;99.90;;;;;;5033983;28;20497;-61
2023/03/20 10:50:13;;;;;;;17.48;9.23;;;9.80;99.90;;;;;;5016906;28;20429;-61
2023/03/20 10:52:40;;;;;;;17.95;8.63;;;9.90;99.90;;;;;;5016995;28;20056;-61
2023/03/20 10:55:11;;;;;;;15.25;8.32;;;9.80;99.90;;;;;;5033358;28;20099;-61
2023/03/20 10:57:41;;;;;;;20.95;10.25;;;9.80;99.90;;;;;;5016880;28;20048;-61
2023/03/20 11:00:18;;;;;;;17.45;9.43;;;9.90;99.90;;;;;;5033016;28;20114;-61
2023/03/20 11:02:45;;;;;;;14.43;8.23;;;9.90;99.90;;;;;;5032619;28;20103;-61
2023/03/20 11:05:33;;;;;;;17.83;8.57;;;9.80;99.90;;;;;;5049148;28;20099;-61
2023/03/20 11:08:12;;;;;;;15.00;9.23;;;9.70;99.90;;;;;;5016364;28;20120;-61
2023/03/20 11:10:40;;;;;;;19.65;8.30;;;9.70;99.90;;;;;;5016989;28;20100;-61
2023/03/20 11:13:24;;;;;;;21.48;7.95;;;9.70;99.90;;;;;;5015713;28;20045;-61
2023/03/20 11:15:52;;;;;;;17.27;9.15;;;9.70;99.90;;;;;;5033864;28;20042;-61
2023/03/20 11:18:18;;;;;;;17.88;8.15;;;9.50;99.90;;;;;;5033692;28;20041;-61
2023/03/20 11:20:54;;;;;;;15.70;9.30;;;9.50;99.90;;;;;;5033510;28;20041;-61
2023/03/20 11:23:25;;;;;;;20.77;9.75;;;9.40;99.90;;;;;;5031450;28;20045;-61
2023/03/20 11:25:58;;;;;;;14.50;9.52;;;9.40;99.90;;;;;;5033044;28;20124;-61
2023/03/20 11:28:39;;;;;;;18.17;11.18;;;9.30;99.90;;;;;;5033374;28;20042;-61
2023/03/20 11:31:18;;;;;;;25.95;10.52;;;9.30;99.90;;;;;;5048777;28;20513;-61
2023/03/20 11:34:10;;;;;;;16.55;10.85;;;9.30;99.90;;;;;;5049373;28;20034;-61
2023/03/20 11:36:38;;;;;;;17.23;9.70;;;9.30;99.90;;;;;;5024737;28;20107;-61
2023/03/20 11:39:21;;;;;;;17.70;10.48;;;9.30;99.90;;;;;;4999518;28;20445;-61
2023/03/20 11:41:50;;;;;;;18.85;11.30;;;9.30;99.90;;;;;;5048940;28;20045;-61
2023/03/20 11:44:29;;;;;;;26.65;10.55;;;9.20;99.90;;;;;;5032279;28;20470;-61
2023/03/20 11:47:13;;;;;;;17.73;10.88;;;9.20;99.90;;;;;;5016228;28;20171;-61
2023/03/20 11:49:49;;;;;;;20.40;12.75;;;9.10;99.90;;;;;;5016048;28;20120;-61
2023/03/20 11:52:20;;;;;;;19.08;12.55;;;9.00;99.90;;;;;;5031652;28;20386;-61
2023/03/20 11:54:49;;;;;;;16.48;11.20;;;9.00;99.90;;;;;;5032486;28;20046;-61
2023/03/20 11:57:36;;;;;;;20.15;10.98;;;8.90;99.90;;;;;;5014189;28;20042;-61
2023/03/20 12:00:23;;;;;;;18.52;12.32;;;8.90;99.90;;;;;;5015447;28;20132;-61
2023/03/20 12:02:49;;;;;;;19.67;11.50;;;8.90;99.90;;;;;;4999142;28;20053;-61
2023/03/20 12:05:28;;;;;;;17.50;11.98;;;8.90;99.90;;;;;;5031841;28;20084;-61
2023/03/20 12:07:58;;;;;;;15.90;11.32;;;8.80;99.90;;;;;;5032643;28;20116;-61
2023/03/20 12:10:28;;;;;;;18.25;12.25;;;8.70;99.90;;;;;;5014911;28;20048;-61
2023/03/20 12:13:01;;;;;;;18.08;10.57;;;8.70;99.90;;;;;;5032310;28;20049;-61
2023/03/20 12:15:29;;;;;;;14.68;10.20;;;8.70;99.90;;;;;;5031521;28;20072;-61
2023/03/20 12:18:32;;;;;;;17.30;11.07;;;8.70;99.90;;;;;;5015003;28;20041;-61
2023/03/20 12:21:21;;;;;;;18.05;10.80;;;8.70;99.90;;;;;;5033303;28;20041;-61
2023/03/20 12:23:52;;;;;;;15.70;10.82;;;8.60;99.90;;;;;;5015159;28;20533;-61
2023/03/20 12:26:33;;;;;;;14.88;10.73;;;8.60;99.90;;;;;;5013596;28;20037;-61
2023/03/20 12:29:17;;;;;;;16.20;10.18;;;8.70;99.90;;;;;;5048540;28;20038;-61
2023/03/20 12:32:08;;;;;;;15.20;9.95;;;8.70;99.90;;;;;;5031704;28;20482;-61
2023/03/20 12:34:41;;;;;;;13.30;10.68;;;8.60;99.90;;;;;;5047540;28;20057;-61
2023/03/20 12:37:10;;;;;;;14.68;10.80;;;8.60;99.90;;;;;;5014835;28;20048;-61
2023/03/20 12:39:49;;;;;;;17.67;12.43;;;8.60;99.90;;;;;;5025752;28;20095;-61
2023/03/20 12:42:21;;;;;;;15.10;10.95;;;8.60;99.90;;;;;;5034034;28;20056;-61
2023/03/20 12:45:13;;;;;;;16.88;11.77;;;8.60;99.90;;;;;;5020415;28;20510;-61
2023/03/20 12:48:00;;;;;;;16.30;11.95;;;8.60;99.90;;;;;;5008267;28;20037;-61
2023/03/20 12:50:41;;;;;;;15.95;11.45;;;8.60;99.90;;;;;;4998047;28;20505;-61
2023/03/20 12:53:39;;;;;;;16.60;10.75;;;8.60;99.90;;;;;;5004101;28;20036;-61
2023/03/20 12:56:42;;;;;;;17.40;10.80;;;8.60;99.90;;;;;;5029792;28;20498;-61
2023/03/20 12:59:19;;;;;;;14.73;11.75;;;8.60;99.90;;;;;;5013846;28;20045;-61
2023/03/20 13:01:45;;;;;;;15.02;10.85;;;8.60;99.90;;;;;;5031874;28;20033;-60